Time;durP1;ratioP1;P1;durP2;ratioP2;P2;SDS_P1;SDS_P2;PMS_P1;PMS_P2;Temp;Humidity;BMP_temperature;BMP_pressure;BME280_temperature;BME280_humidity;BME280_pressure;Samples;Min_cycle;Max_cycle;Signal;HPM_P1;HPM_P2
2021/11/12 07:40:48;;;;;;;58.20;18.40;;;;;;;-0.19;100.00;99481.03;5151587;27;20572;-81
2021/11/12 07:44:05;;;;;;;62.00;24.60;;;;;;;0.06;100.00;99503.31;5150636;27;20486;-81
2021/11/12 07:46:15;;;;;;;72.60;20.47;;;;;;;0.03;100.00;99466.13;5168397;27;20038;-81
2021/11/12 07:48:44;;;;;;;103.82;25.13;;;;;;;0.15;100.00;99491.97;5170752;27;20079;-82
2021/11/12 07:51:12;;;;;;;93.07;19.63;;;;;;;0.15;100.00;99468.78;5171733;27;20305;-81
2021/11/12 07:53:42;;;;;;;46.42;17.15;;;;;;;0.17;100.00;99469.50;5171836;27;20046;-81
2021/11/12 07:56:09;;;;;;;53.00;17.73;;;;;;;0.38;100.00;99479.63;5171141;27;20042;-82
2021/11/12 07:58:36;;;;;;;58.30;16.92;;;;;;;0.29;100.00;99456.22;5171556;27;20056;-81
2021/11/12 08:01:03;;;;;;;55.10;16.17;;;;;;;0.29;100.00;99456.22;5163132;27;20058;-82
2021/11/12 08:03:30;;;;;;;44.67;15.88;;;;;;;0.38;100.00;99455.53;5171299;27;20047;-82
2021/11/12 08:05:59;;;;;;;54.50;16.35;;;;;;;0.57;100.00;99457.69;5164065;27;20050;-82
2021/11/12 08:08:28;;;;;;;52.72;18.10;;;;;;;0.56;100.00;99449.78;5150783;27;20042;-82
2021/11/12 08:11:23;;;;;;;61.97;15.73;;;;;;;0.63;100.00;99453.72;5153460;27;20078;-82
2021/11/12 08:13:54;;;;;;;38.70;17.70;;;;;;;0.66;100.00;99457.03;5161789;27;20327;-81
2021/11/12 08:16:32;;;;;;;30.73;14.25;;;;;;;0.61;100.00;99440.44;5171615;27;20042;-82
2021/11/12 08:19:01;;;;;;;36.55;15.23;;;;;;;0.79;100.00;99448.91;5150767;27;20397;-82
2021/11/12 08:21:49;;;;;;;56.42;17.80;;;;;;;0.81;100.00;99438.97;5150313;27;20043;-81
2021/11/12 08:30:59;;;;;;;41.80;13.63;;;;;;;0.74;100.00;99447.56;5152798;27;20474;-81
2021/11/12 08:37:11;;;;;;;34.83;14.27;;;;;;;0.79;100.00;99456.09;5145524;27;20143;-82
2021/11/12 08:46:00;;;;;;;45.05;14.65;;;;;;;0.78;100.00;99436.50;5139741;27;20111;-81
2021/11/12 08:49:01;;;;;;;37.88;14.27;;;;;;;0.71;100.00;99440.63;5136506;27;20082;-81
2021/11/12 08:51:33;;;;;;;24.58;14.23;;;;;;;0.78;100.00;99416.91;5135311;27;20074;-81
2021/11/12 08:54:01;;;;;;;32.03;14.93;;;;;;;0.97;100.00;99416.38;5136234;27;20047;-82
2021/11/12 08:56:29;;;;;;;31.30;14.93;;;;;;;1.00;100.00;99424.19;5129841;27;20040;-81
2021/11/12 08:58:56;;;;;;;40.67;14.32;;;;;;;1.00;100.00;99446.44;5115143;28;20134;-81
2021/11/12 09:01:25;;;;;;;29.45;13.60;;;;;;;1.06;100.00;99421.88;5131776;27;20047;-81
2021/11/12 09:03:57;;;;;;;33.58;14.40;;;;;;;1.07;100.00;99420.06;5135407;27;20039;-81
2021/11/12 09:09:40;;;;;;;30.02;15.18;;;;;;;0.71;100.00;99424.56;5111247;28;20095;-81
2021/11/12 09:12:21;;;;;;;43.63;15.48;;;;;;;0.79;100.00;99421.31;5114936;28;20252;-81
2021/11/12 09:14:49;;;;;;;27.05;15.07;;;;;;;1.03;100.00;99430.13;5115119;28;20052;-82
2021/11/12 09:18:11;;;;;;;47.63;15.98;;;;;;;0.88;100.00;99429.47;5132295;27;20047;-82
2021/11/12 09:21:04;;;;;;;41.95;14.43;;;;;;;0.95;100.00;99440.59;5065807;28;20402;-82
2021/11/12 09:23:42;;;;;;;47.67;15.80;;;;;;;1.10;100.00;99445.72;5114813;28;20047;-82
2021/11/12 09:29:15;;;;;;;57.80;20.23;;;;;;;1.17;100.00;99438.94;5117884;27;20055;-82
2021/11/12 09:31:51;;;;;;;41.75;15.88;;;;;;;1.03;100.00;99424.78;5116635;27;20057;-82
2021/11/12 09:41:04;;;;;;;30.40;14.68;;;;;;;1.17;100.00;99449.66;5108420;27;20461;-81
2021/11/12 09:43:36;;;;;;;28.77;14.77;;;;;;;1.23;100.00;99436.66;5124922;27;20142;-81
2021/11/12 09:46:10;;;;;;;27.67;15.25;;;;;;;1.42;100.00;99427.19;5125021;27;20493;-82
2021/11/12 09:48:37;;;;;;;26.63;15.55;;;;;;;1.54;100.00;99444.97;5119002;27;20127;-81
2021/11/12 09:53:47;;;;;;;39.15;17.50;;;;;;;1.45;100.00;99432.28;5115689;27;20081;-81
2021/11/12 09:56:19;;;;;;;31.52;16.77;;;;;;;1.58;100.00;99424.13;5133463;27;20051;-81
2021/11/12 09:58:48;;;;;;;37.25;16.15;;;;;;;1.68;100.00;99422.44;5133637;27;20082;-82
2021/11/12 10:01:15;;;;;;;35.45;17.70;;;;;;;1.67;100.00;99404.66;5134179;27;20047;-81
2021/11/12 10:03:45;;;;;;;34.58;17.05;;;;;;;1.68;100.00;99378.69;5134546;27;20074;-81
2021/11/12 10:09:31;;;;;;;34.97;17.15;;;;;;;1.72;100.00;99406.97;5105510;27;20094;-81
2021/11/12 10:12:07;;;;;;;37.00;18.38;;;;;;;1.70;100.00;99412.47;5129262;27;20406;-82
2021/11/12 10:14:51;;;;;;;35.17;17.15;;;;;;;1.58;100.00;99405.38;5125290;27;20391;-82
2021/11/12 10:17:43;;;;;;;37.65;17.00;;;;;;;1.59;100.00;99407.09;5133465;27;20051;-83
2021/11/12 10:20:14;;;;;;;34.78;17.38;;;;;;;1.68;100.00;99403.66;5134280;27;20040;-81
2021/11/12 10:22:51;;;;;;;36.10;19.55;;;;;;;1.72;100.00;99390.91;5133100;27;20131;-82
2021/11/12 10:25:29;;;;;;;35.35;18.38;;;;;;;1.99;100.00;99377.09;5113957;28;20052;-81
2021/11/12 10:28:32;;;;;;;35.97;17.77;;;;;;;1.87;100.00;99375.41;5096530;28;20134;-81
2021/11/12 10:31:16;;;;;;;61.88;18.90;;;;;;;1.72;100.00;99372.97;5120856;27;20047;-81
2021/11/12 10:33:57;;;;;;;35.20;19.50;;;;;;;1.92;100.00;99374.03;5113113;28;20441;-81
2021/11/12 10:40:18;;;;;;;33.13;16.95;;;;;;;1.59;100.00;99337.41;5105510;28;20260;-81
2021/11/12 10:42:55;;;;;;;45.55;18.10;;;;;;;1.58;100.00;99327.66;5113309;28;20056;-82
2021/11/12 10:45:43;;;;;;;32.67;17.30;;;;;;;1.86;100.00;99338.84;5124185;27;20398;-81
2021/11/12 10:48:16;;;;;;;38.33;18.27;;;;;;;1.99;100.00;99341.34;5131605;27;20055;-81
2021/11/12 10:51:18;;;;;;;32.85;18.13;;;;;;;2.08;100.00;99352.19;5133401;27;20057;-82
2021/11/12 10:54:02;;;;;;;32.03;16.88;;;;;;;2.08;100.00;99329.91;5131564;27;20047;-82
2021/11/12 10:56:57;;;;;;;37.95;17.08;;;;;;;2.18;100.00;99338.00;5133545;27;20039;-81
2021/11/12 10:59:29;;;;;;;79.82;22.48;;;;;;;2.12;100.00;99307.19;5113178;28;20555;-81
2021/11/12 11:02:33;;;;;;;36.47;18.38;;;;;;;2.12;100.00;99300.00;5113108;28;20101;-81
2021/11/12 11:05:08;;;;;;;37.88;18.20;;;;;;;2.22;100.00;99297.41;5099540;27;20124;-82
2021/11/12 11:07:44;;;;;;;37.47;19.25;;;;;;;2.19;100.00;99304.84;5125276;27;20047;-82
2021/11/12 11:10:32;;;;;;;35.50;17.85;;;;;;;2.36;100.00;99298.91;5114759;27;20138;-81
2021/11/12 11:13:12;;;;;;;31.55;17.58;;;;;;;2.45;100.00;99324.13;5113107;28;20070;-81
2021/11/12 11:16:17;;;;;;;39.05;17.83;;;;;;;2.23;100.00;99298.25;5130172;27;20051;-82
2021/11/12 11:18:57;;;;;;;31.05;18.02;;;;;;;2.35;100.00;99304.41;5131984;27;20497;-81
2021/11/12 11:22:06;;;;;;;30.75;16.85;;;;;;;2.28;100.00;99306.78;5118979;27;20075;-81
2021/11/12 11:24:48;;;;;;;28.83;17.17;;;;;;;2.35;100.00;99315.13;5124928;27;20099;-81
2021/11/12 11:37:08;;;;;;;35.47;18.08;;;;;;;2.19;100.00;99289.59;3307053;26;20132;-82
2021/11/12 11:57:12;;;;;;;33.00;17.50;;;;;;;2.34;100.00;99265.16;4781042;29;20050;-82
2021/11/12 12:00:31;;;;;;;35.67;18.48;;;;;;;2.46;100.00;99267.63;4966499;28;20054;-82
2021/11/12 12:03:23;;;;;;;33.85;18.75;;;;;;;2.59;100.00;99267.47;4989188;28;20437;-82
2021/11/12 12:06:33;;;;;;;36.03;19.55;;;;;;;2.49;100.00;99237.03;5002769;28;20057;-82
2021/11/12 12:09:08;;;;;;;32.85;19.52;;;;;;;2.59;100.00;99231.69;5030677;28;20052;-82
2021/11/12 12:12:26;;;;;;;33.88;18.88;;;;;;;2.60;100.00;99222.66;5051196;28;20053;-82
2021/11/12 13:34:05;;;;;;;47.67;20.80;;;;;;;2.62;100.00;99172.38;5790901;22;20057;-94
2021/11/12 13:36:34;;;;;;;39.20;20.48;;;;;;;2.65;100.00;99175.66;5053847;28;20030;-93
2021/11/12 13:39:11;;;;;;;40.17;22.75;;;;;;;2.69;100.00;99175.41;5055829;28;20037;-94
2021/11/12 13:41:40;;;;;;;43.78;21.08;;;;;;;2.73;100.00;99161.56;5044692;28;20098;-93
2021/11/12 13:44:09;;;;;;;66.90;23.75;;;;;;;2.46;100.00;99154.09;5040366;28;20037;-92
2021/11/12 14:43:48;;;;;;;52.38;22.60;;;;;;;2.25;100.00;99179.09;4932703;29;20040;-81
2021/11/12 15:30:00;;;;;;;62.20;25.23;;;;;;;1.75;100.00;99179.72;4787356;29;20077;-82
2021/11/12 15:32:29;;;;;;;73.30;27.75;;;;;;;1.87;100.00;99191.25;4885511;28;20150;-82
2021/11/12 15:35:01;;;;;;;56.85;26.38;;;;;;;1.87;100.00;99188.56;5012392;28;20061;-82
2021/11/12 15:37:31;;;;;;;60.33;29.48;;;;;;;1.93;100.00;99187.22;4988434;28;20521;-82
2021/11/12 15:40:04;;;;;;;58.13;25.45;;;;;;;1.90;100.00;99200.88;4997075;28;20486;-82
2021/11/12 15:45:49;;;;;;;49.67;24.73;;;;;;;1.99;100.00;99197.41;4918782;29;20047;-82
2021/11/12 15:48:18;;;;;;;53.58;25.60;;;;;;;1.96;100.00;99200.38;4918610;29;20048;-82
2021/11/12 15:50:51;;;;;;;63.00;27.75;;;;;;;2.01;100.00;99197.28;4913100;29;20511;-82
2021/11/12 15:53:22;;;;;;;57.40;24.50;;;;;;;1.98;100.00;99205.59;4911773;29;20045;-83
2021/11/12 15:56:03;;;;;;;57.80;25.25;;;;;;;1.94;100.00;99197.81;4912445;29;20100;-82
2021/11/12 16:01:25;;;;;;;52.33;24.90;;;;;;;1.87;100.00;99204.66;4995102;28;20060;-82
2021/11/12 16:04:23;;;;;;;61.22;25.67;;;;;;;1.90;100.00;99209.78;4995944;28;20050;-83
2021/11/12 16:07:04;;;;;;;62.25;27.60;;;;;;;1.86;100.00;99207.47;4996101;28;20058;-82
2021/11/12 16:09:37;;;;;;;58.75;27.98;;;;;;;1.93;100.00;99217.56;4995778;28;20542;-82
2021/11/12 16:15:01;;;;;;;63.53;26.13;;;;;;;1.88;100.00;99197.47;4988249;28;20065;-82
2021/11/12 16:17:49;;;;;;;82.15;28.58;;;;;;;2.01;100.00;99208.03;4996212;28;20050;-82
2021/11/12 16:20:35;;;;;;;70.45;25.73;;;;;;;1.94;100.00;99203.19;4995435;28;20054;-82
2021/11/12 16:25:54;;;;;;;61.35;26.95;;;;;;;2.00;100.00;99196.41;4992615;28;20147;-82
2021/11/12 16:28:22;;;;;;;56.90;25.58;;;;;;;2.05;100.00;99193.38;4993417;28;20052;-82
2021/11/12 16:30:55;;;;;;;60.63;27.05;;;;;;;2.00;100.00;99198.25;4995543;28;20143;-82
2021/11/12 16:33:25;;;;;;;55.10;26.08;;;;;;;2.08;100.00;99187.75;4995041;28;20552;-82
2021/11/12 16:35:53;;;;;;;80.68;26.73;;;;;;;2.13;100.00;99204.28;4996004;28;20061;-82
2021/11/12 16:38:22;;;;;;;64.45;25.67;;;;;;;2.17;100.00;99188.78;4994703;28;20082;-82
2021/11/12 16:40:54;;;;;;;57.33;24.58;;;;;;;2.00;100.00;99183.00;4995517;28;20054;-83
2021/11/12 16:43:32;;;;;;;56.45;26.63;;;;;;;2.13;100.00;99196.25;4992510;28;20118;-82
2021/11/12 16:46:23;;;;;;;95.97;25.20;;;;;;;1.88;100.00;99176.00;4994347;28;20560;-82
2021/11/12 16:49:00;;;;;;;74.80;23.55;;;;;;;1.85;100.00;99187.00;4994909;28;20513;-82
2021/11/12 16:54:38;;;;;;;55.92;25.17;;;;;;;1.92;100.00;99207.78;4994718;28;20434;-82
2021/11/12 17:00:00;;;;;;;72.45;25.77;;;;;;;1.88;100.00;99198.34;4983018;28;20051;-82
2021/11/12 17:02:35;;;;;;;83.85;26.20;;;;;;;1.87;100.00;99190.41;4994432;28;20546;-82
2021/11/12 17:05:15;;;;;;;71.10;26.75;;;;;;;1.88;100.00;99192.09;4994621;28;20482;-83
2021/11/12 17:10:46;;;;;;;85.90;24.55;;;;;;;1.76;100.00;99173.41;4983971;28;20039;-82
2021/11/12 17:13:33;;;;;;;70.63;24.35;;;;;;;1.84;100.00;99179.94;4995320;28;20175;-83
2021/11/12 17:16:20;;;;;;;86.07;23.92;;;;;;;1.85;100.00;99171.78;4994768;28;20072;-82
2021/11/12 17:19:08;;;;;;;87.47;27.25;;;;;;;1.82;100.00;99181.91;4988623;28;20122;-82
2021/11/12 17:46:32;;;;;;;78.32;21.95;;;;;;;1.52;100.00;99191.50;4996309;28;20065;-82
2021/11/12 17:49:07;;;;;;;68.13;23.70;;;;;;;1.55;100.00;99196.59;4994168;28;20129;-82
2021/11/12 17:52:01;;;;;;;98.68;24.83;;;;;;;1.58;100.00;99212.44;4992651;28;20134;-82
2021/11/12 18:02:49;;;;;;;92.95;26.63;;;;;;;1.52;100.00;99221.84;4992033;28;20088;-82
2021/11/12 18:05:21;;;;;;;103.55;24.30;;;;;;;1.49;100.00;99227.47;4993098;28;20064;-82
2021/11/12 21:46:01;;;;;;;42.38;19.70;;;;;;;1.16;100.00;99094.44;5001989;28;20043;-82
2021/11/12 21:48:29;;;;;;;49.05;19.25;;;;;;;1.13;100.00;99090.22;5009966;28;20070;-82
2021/11/12 21:51:00;;;;;;;55.10;17.17;;;;;;;1.15;100.00;99095.44;5008476;28;20105;-81
2021/11/12 21:53:27;;;;;;;51.00;21.23;;;;;;;1.10;100.00;99086.91;5000034;28;20061;-81
2021/11/12 21:55:55;;;;;;;57.83;19.98;;;;;;;1.12;100.00;99083.16;4997043;28;20256;-81
2021/11/12 21:58:22;;;;;;;49.63;20.25;;;;;;;1.18;100.00;99074.59;4995051;28;20050;-81
2021/11/12 22:00:50;;;;;;;52.40;20.15;;;;;;;1.12;100.00;99083.16;5001097;28;20049;-81
2021/11/12 22:03:17;;;;;;;57.85;19.38;;;;;;;1.20;100.00;99093.22;4994002;28;20042;-82
2021/11/12 22:05:45;;;;;;;48.17;19.95;;;;;;;1.32;100.00;99086.84;4994636;28;20096;-82
2021/11/12 22:08:13;;;;;;;52.58;19.98;;;;;;;1.31;100.00;99086.97;4993729;28;20391;-81
2021/11/12 22:10:40;;;;;;;47.58;19.40;;;;;;;1.31;100.00;99086.97;4992864;28;20093;-81
2021/11/12 22:13:08;;;;;;;57.25;21.25;;;;;;;1.29;100.00;99083.59;4993819;28;20112;-81
2021/11/12 22:15:35;;;;;;;48.33;20.17;;;;;;;1.33;100.00;99071.66;4992988;28;20190;-82
2021/11/12 22:18:02;;;;;;;39.10;18.02;;;;;;;1.29;100.00;99064.84;4993497;28;20046;-82
2021/11/12 22:20:29;;;;;;;45.78;18.30;;;;;;;1.22;100.00;99069.88;4994448;28;20490;-81
2021/11/12 22:22:56;;;;;;;47.03;18.55;;;;;;;1.24;100.00;99073.25;5008708;28;20105;-82
2021/11/12 22:25:24;;;;;;;41.63;17.55;;;;;;;1.28;100.00;99082.75;4993590;28;20137;-82
2021/11/12 22:27:51;;;;;;;41.05;18.63;;;;;;;1.25;100.00;99083.00;4993202;28;20450;-82
2021/11/12 22:30:18;;;;;;;31.00;16.42;;;;;;;1.22;100.00;99056.47;4998489;28;20406;-81
2021/11/12 22:32:45;;;;;;;31.90;17.02;;;;;;;1.33;100.00;99079.69;4991669;28;20050;-81
2021/11/12 22:35:12;;;;;;;33.20;15.95;;;;;;;1.34;100.00;99078.69;4992482;28;20141;-81
2021/11/12 22:37:41;;;;;;;35.40;17.38;;;;;;;1.33;100.00;99075.16;5003490;28;20548;-82
2021/11/12 22:40:09;;;;;;;30.15;16.38;;;;;;;1.26;100.00;99067.78;5010402;28;20054;-80
2021/11/12 22:42:38;;;;;;;39.13;15.35;;;;;;;1.27;100.00;99070.31;4994759;28;20457;-81
2021/11/12 22:45:07;;;;;;;37.07;16.93;;;;;;;1.26;100.00;99067.78;4992593;28;20058;-81
2021/11/12 22:47:34;;;;;;;34.63;17.15;;;;;;;1.28;100.00;99057.78;4992407;28;20383;-81
2021/11/12 22:50:01;;;;;;;44.72;16.23;;;;;;;1.29;100.00;99065.69;4992003;28;20050;-81
2021/11/12 22:52:28;;;;;;;48.95;16.27;;;;;;;1.19;100.00;99073.63;4991214;28;20097;-81
2021/11/12 22:54:55;;;;;;;37.80;15.88;;;;;;;1.14;100.00;99073.16;4991588;28;20050;-81
2021/11/12 22:57:22;;;;;;;56.20;17.42;;;;;;;1.15;100.00;99071.34;4994099;28;20137;-81
2021/11/12 22:59:50;;;;;;;44.95;16.48;;;;;;;1.15;100.00;99074.88;4997453;28;20149;-81
2021/11/12 23:02:17;;;;;;;40.75;16.42;;;;;;;1.13;100.00;99071.47;4992104;28;20050;-82
2021/11/12 23:04:44;;;;;;;54.47;18.35;;;;;;;1.17;100.00;99078.25;5002139;28;20054;-81
2021/11/12 23:07:13;;;;;;;49.20;18.30;;;;;;;1.17;100.00;99067.53;4972586;28;20077;-81
2021/11/12 23:09:39;;;;;;;39.75;17.00;;;;;;;1.21;100.00;99066.31;4989407;28;20049;-82
2021/11/12 23:12:08;;;;;;;31.13;17.65;;;;;;;1.35;100.00;99067.84;4990974;28;20054;-82
2021/11/12 23:14:34;;;;;;;53.10;17.02;;;;;;;1.41;100.00;99067.31;4973513;28;20101;-82
2021/11/12 23:17:03;;;;;;;40.05;15.95;;;;;;;1.46;100.00;99058.06;4991304;28;20097;-82
2021/11/12 23:19:30;;;;;;;41.90;16.27;;;;;;;1.42;100.00;99058.31;4992227;28;20050;-82
2021/11/12 23:21:58;;;;;;;39.63;16.98;;;;;;;1.45;100.00;99051.84;4991787;28;20054;-81
2021/11/12 23:24:25;;;;;;;43.13;17.05;;;;;;;1.38;100.00;99038.13;4992984;28;20117;-81
2021/11/12 23:26:52;;;;;;;34.40;17.25;;;;;;;1.33;100.00;99032.31;4992028;28;20046;-82
2021/11/12 23:29:19;;;;;;;33.03;16.85;;;;;;;1.31;100.00;99044.13;4983343;28;20395;-82
2021/11/12 23:31:46;;;;;;;32.92;16.35;;;;;;;1.24;100.00;99035.75;4992144;28;20050;-81
2021/11/12 23:34:14;;;;;;;59.67;17.13;;;;;;;1.21;100.00;99039.53;4990391;28;20536;-82
2021/11/12 23:36:41;;;;;;;45.40;16.00;;;;;;;1.28;100.00;99047.06;4974057;28;20555;-81
2021/11/12 23:39:08;;;;;;;37.80;16.48;;;;;;;1.24;100.00;99043.78;4991959;28;20054;-81
2021/11/12 23:41:35;;;;;;;41.20;16.55;;;;;;;1.15;100.00;99033.84;4991783;28;20512;-82
2021/11/12 23:44:02;;;;;;;36.53;15.68;;;;;;;1.26;100.00;99031.13;4991838;28;20073;-81
2021/11/12 23:46:28;;;;;;;52.85;16.88;;;;;;;1.20;100.00;99034.31;4992145;28;20054;-81
2021/11/12 23:48:55;;;;;;;51.45;17.83;;;;;;;1.17;100.00;99021.19;4990985;28;20419;-81
2021/11/12 23:51:24;;;;;;;60.47;18.55;;;;;;;1.19;100.00;99021.88;4991350;28;20050;-81
2021/11/12 23:53:51;;;;;;;53.22;17.65;;;;;;;1.36;100.00;99031.22;4992391;28;20128;-81
2021/11/12 23:56:18;;;;;;;59.38;18.08;;;;;;;1.28;100.00;99031.84;4992235;28;20401;-81
2021/11/12 23:58:45;;;;;;;40.38;16.50;;;;;;;1.46;100.00;99045.53;4991768;28;20073;-81
